createdAt,value
2018-01-13T00:00:32.053Z,59.61
2018-01-13T00:03:00.468Z,60.21
2018-01-13T00:05:28.918Z,62.86
2018-01-13T00:07:57.579Z,59.45
2018-01-13T00:10:26.081Z,61.31
2018-01-13T00:12:54.578Z,61.80
2018-01-13T00:15:22.997Z,63.32
2018-01-13T00:17:51.544Z,63.48
2018-01-13T00:20:20.115Z,62.03
2018-01-13T00:22:48.690Z,60.85
2018-01-13T00:25:17.122Z,62.29
2018-01-13T00:27:45.642Z,62.57
2018-01-13T00:30:14.217Z,62.89
2018-01-13T00:32:42.816Z,62.23
2018-01-13T00:35:11.244Z,63.88
2018-01-13T00:37:39.692Z,62.98
2018-01-13T00:40:08.097Z,65.20
2018-01-13T00:42:36.477Z,64.87
2018-01-13T00:45:04.906Z,64.64
2018-01-13T00:47:33.513Z,67.97
2018-01-13T00:50:02.088Z,64.30
2018-01-13T00:52:30.623Z,70.18
2018-01-13T00:54:59.087Z,66.44
2018-01-13T00:57:27.499Z,66.53
2018-01-13T00:59:55.871Z,67.74
2018-01-13T01:02:24.243Z,65.38
2018-01-13T01:04:52.614Z,70.25
2018-01-13T01:07:20.979Z,68.62
2018-01-13T01:09:49.392Z,71.80
2018-01-13T01:12:17.776Z,67.54
2018-01-13T01:14:46.151Z,69.74
2018-01-13T01:17:14.507Z,69.26
2018-01-13T01:19:42.875Z,71.91
2018-01-13T01:22:11.262Z,68.82
2018-01-13T01:24:39.665Z,67.39
2018-01-13T01:27:08.029Z,66.10
2018-01-13T01:29:36.408Z,70.05
2018-01-13T01:32:04.782Z,71.60
2018-01-13T01:34:33.143Z,66.67
2018-01-13T01:37:01.547Z,67.00
2018-01-13T01:39:29.939Z,65.76
2018-01-13T01:41:58.319Z,68.04
2018-01-13T01:44:26.686Z,64.63
2018-01-13T01:46:55.060Z,66.50
2018-01-13T01:49:23.458Z,66.30
2018-01-13T01:51:51.825Z,67.92
2018-01-13T01:54:20.179Z,70.46
2018-01-13T01:56:48.550Z,67.82
2018-01-13T01:59:16.924Z,64.38
2018-01-13T02:01:45.323Z,65.01
2018-01-13T02:04:13.708Z,64.92
2018-01-13T02:06:42.074Z,67.18
2018-01-13T02:09:10.463Z,67.99
2018-01-13T02:11:38.834Z,64.68
2018-01-13T02:14:07.562Z,67.03
2018-01-13T02:16:35.922Z,64.93
2018-01-13T02:19:04.442Z,64.88
2018-01-13T02:21:33.059Z,66.42
2018-01-13T02:24:01.543Z,64.55
2018-01-13T02:26:29.986Z,67.29
2018-01-13T02:28:58.420Z,66.33
2018-01-13T02:31:26.848Z,65.82
2018-01-13T02:33:55.270Z,65.71
2018-01-13T02:36:23.688Z,64.95
2018-01-13T02:38:52.175Z,65.05
2018-01-13T02:41:20.565Z,63.52
2018-01-13T02:43:48.997Z,63.33
2018-01-13T02:46:17.442Z,67.65
2018-01-13T02:48:45.851Z,67.65
2018-01-13T02:51:14.516Z,68.27
2018-01-13T02:53:43.012Z,66.45
2018-01-13T02:56:11.511Z,65.05
2018-01-13T02:58:39.963Z,66.88
2018-01-13T03:01:08.381Z,63.76
2018-01-13T03:03:37.283Z,64.42
2018-01-13T03:06:05.819Z,61.69
2018-01-13T03:08:34.202Z,63.04
2018-01-13T03:11:02.682Z,63.41
2018-01-13T03:13:31.174Z,62.29
2018-01-13T03:15:59.812Z,65.99
2018-01-13T03:18:28.285Z,63.59
2018-01-13T03:20:56.685Z,63.97
2018-01-13T03:23:25.185Z,64.67
2018-01-13T03:25:53.624Z,61.60
2018-01-13T03:28:22.105Z,63.73
2018-01-13T03:30:50.520Z,65.81
2018-01-13T03:33:18.927Z,64.62
2018-01-13T03:35:47.467Z,62.92
2018-01-13T03:38:15.878Z,64.60
2018-01-13T03:40:44.575Z,62.96
2018-01-13T03:43:13.102Z,63.30
2018-01-13T03:45:41.530Z,63.86
2018-01-13T03:48:10.157Z,62.60
2018-01-13T03:50:38.602Z,63.16
2018-01-13T03:53:07.151Z,64.50
2018-01-13T03:55:35.540Z,64.46
2018-01-13T03:58:04.051Z,68.69
2018-01-13T04:00:33.053Z,63.38
2018-01-13T04:03:01.531Z,64.52
2018-01-13T04:05:30.297Z,65.84
2018-01-13T04:07:58.689Z,65.65
2018-01-13T04:10:27.465Z,63.61
2018-01-13T04:12:55.948Z,62.08
2018-01-13T04:15:24.455Z,64.78
2018-01-13T04:17:53.033Z,63.74
2018-01-13T04:20:21.464Z,63.98
2018-01-13T04:22:49.988Z,66.87
2018-01-13T04:25:18.415Z,63.36
2018-01-13T04:27:46.838Z,61.84
2018-01-13T04:30:15.253Z,65.60
2018-01-13T04:32:43.889Z,63.56
2018-01-13T04:35:12.323Z,61.70
2018-01-13T04:37:40.723Z,65.40
2018-01-13T04:40:09.229Z,62.55
2018-01-13T04:42:37.876Z,65.54
2018-01-13T04:45:06.441Z,67.04
2018-01-13T04:47:34.991Z,65.60
2018-01-13T04:50:03.379Z,64.70
2018-01-13T04:52:31.783Z,66.93
2018-01-13T04:55:00.259Z,69.13
2018-01-13T04:57:28.788Z,70.03
2018-01-13T04:59:57.259Z,67.80
2018-01-13T05:02:25.894Z,67.69
2018-01-13T05:04:54.401Z,67.30
2018-01-13T05:07:22.880Z,69.63
2018-01-13T05:09:51.331Z,65.71
2018-01-13T05:12:19.761Z,66.73
2018-01-13T05:14:48.209Z,70.74
2018-01-13T05:17:16.660Z,68.86
2018-01-13T05:19:45.072Z,66.20
2018-01-13T05:22:13.648Z,64.75
2018-01-13T05:24:42.082Z,68.30
2018-01-13T05:27:10.561Z,68.25
2018-01-13T05:29:39.120Z,63.84
2018-01-13T05:32:07.571Z,62.61
2018-01-13T05:34:35.985Z,61.19
2018-01-13T05:37:04.499Z,62.32
2018-01-13T05:39:32.939Z,65.47
2018-01-13T05:42:01.403Z,67.13
2018-01-13T05:44:30.358Z,66.04
2018-01-13T05:46:58.759Z,65.04
2018-01-13T05:49:27.203Z,67.04
2018-01-13T05:51:55.600Z,64.09
2018-01-13T05:54:23.965Z,61.74
2018-01-13T05:56:52.387Z,60.82
2018-01-13T05:59:20.774Z,63.53
2018-01-13T06:01:49.139Z,63.59
2018-01-13T06:04:17.513Z,62.90
2018-01-13T06:06:45.901Z,66.63
2018-01-13T06:09:14.251Z,64.92
2018-01-13T06:11:42.624Z,67.02
2018-01-13T06:14:10.995Z,63.54
2018-01-13T06:16:39.379Z,64.29
2018-01-13T06:19:07.764Z,63.92
2018-01-13T06:21:36.158Z,64.12
2018-01-13T06:24:04.524Z,65.06
2018-01-13T06:26:32.887Z,66.42
2018-01-13T06:29:01.246Z,62.66
2018-01-13T06:31:29.679Z,65.58
2018-01-13T06:33:58.038Z,67.56
2018-01-13T06:36:26.401Z,66.08
2018-01-13T06:38:54.769Z,67.41
2018-01-13T06:41:23.147Z,69.05
2018-01-13T06:43:51.549Z,67.67
2018-01-13T06:46:19.988Z,67.98
2018-01-13T06:48:48.382Z,66.62
2018-01-13T06:51:16.748Z,66.10
2018-01-13T06:53:45.099Z,68.92
2018-01-13T06:56:13.529Z,68.14
2018-01-13T06:58:41.889Z,69.01
2018-01-13T07:01:10.260Z,66.57
2018-01-13T07:03:38.652Z,65.26
2018-01-13T07:06:07.032Z,66.14
2018-01-13T07:08:35.460Z,63.70
2018-01-13T07:11:03.831Z,62.83
2018-01-13T07:13:32.219Z,61.69
2018-01-13T07:16:00.588Z,60.94
2018-01-13T07:18:28.964Z,62.70
2018-01-13T07:20:57.456Z,63.61
2018-01-13T07:23:25.802Z,64.83
2018-01-13T07:25:54.177Z,67.62
2018-01-13T07:28:22.580Z,64.42
2018-01-13T07:30:50.947Z,61.42
2018-01-13T07:33:19.327Z,60.07
2018-01-13T07:35:47.722Z,60.94
2018-01-13T07:38:16.085Z,62.94
2018-01-13T07:40:44.496Z,63.50
2018-01-13T07:43:13.017Z,62.49
2018-01-13T07:45:41.405Z,62.13
2018-01-13T07:48:09.768Z,61.83
2018-01-13T07:50:38.127Z,63.65
2018-01-13T07:53:06.563Z,61.97
2018-01-13T07:55:34.942Z,63.02
2018-01-13T07:58:03.303Z,61.98
2018-01-13T08:00:31.666Z,59.21
2018-01-13T08:03:00.276Z,61.33
2018-01-13T08:05:30.207Z,63.76
2018-01-13T08:07:58.860Z,62.49
2018-01-13T08:10:27.453Z,61.11
2018-01-13T08:12:55.864Z,62.02
2018-01-13T08:15:24.294Z,61.19
2018-01-13T08:17:52.705Z,63.46
2018-01-13T08:20:21.079Z,59.67
2018-01-13T08:22:49.454Z,57.79
2018-01-13T08:25:17.849Z,62.06
2018-01-13T08:27:46.217Z,63.92
2018-01-13T08:30:14.615Z,64.05
2018-01-13T08:32:42.978Z,65.30
2018-01-13T08:35:11.346Z,62.33
2018-01-13T08:37:39.775Z,60.07
2018-01-13T08:40:08.166Z,59.47
2018-01-13T08:42:36.525Z,59.83
2018-01-13T08:45:04.918Z,61.58
2018-01-13T08:47:33.331Z,61.40
2018-01-13T08:50:01.777Z,60.63
2018-01-13T08:52:30.137Z,61.54
2018-01-13T08:54:58.492Z,59.14
2018-01-13T08:57:26.858Z,57.35
2018-01-13T08:59:55.343Z,61.77
2018-01-13T09:02:25.183Z,57.40
2018-01-13T09:04:53.563Z,57.23
2018-01-13T09:07:21.935Z,58.40
2018-01-13T09:09:50.302Z,56.31
2018-01-13T09:12:18.778Z,61.12
2018-01-13T09:14:47.152Z,57.97
2018-01-13T09:17:15.548Z,57.81
2018-01-13T09:19:43.911Z,56.39
2018-01-13T09:22:12.275Z,56.44
2018-01-13T09:24:40.671Z,55.26
2018-01-13T09:27:09.051Z,55.29
2018-01-13T09:29:37.415Z,55.26
2018-01-13T09:32:05.774Z,54.75
2018-01-13T09:34:34.192Z,53.27
2018-01-13T09:37:02.589Z,54.76
2018-01-13T09:39:30.981Z,58.85
2018-01-13T09:41:59.385Z,56.17
2018-01-13T09:44:27.787Z,60.35
2018-01-13T09:46:56.267Z,59.37
2018-01-13T09:49:24.668Z,56.54
2018-01-13T09:51:53.056Z,55.78
2018-01-13T09:54:21.412Z,59.44
2018-01-13T09:56:49.767Z,59.46
2018-01-13T09:59:18.126Z,58.84
2018-01-13T10:01:46.616Z,60.25
2018-01-13T10:04:14.992Z,60.63
2018-01-13T10:06:43.396Z,59.72
2018-01-13T10:09:11.771Z,56.72
2018-01-13T10:11:40.129Z,57.15
2018-01-13T10:14:08.521Z,60.26
2018-01-13T10:16:36.917Z,58.55
2018-01-13T10:19:05.331Z,56.68
2018-01-13T10:21:33.752Z,57.40
2018-01-13T10:24:02.265Z,58.99
2018-01-13T10:26:30.623Z,59.79
2018-01-13T10:28:59.006Z,59.87
2018-01-13T10:31:27.500Z,59.65
2018-01-13T10:33:55.940Z,59.06
2018-01-13T10:36:24.300Z,58.71
2018-01-13T10:38:52.662Z,60.11
2018-01-13T10:41:21.053Z,58.03
2018-01-13T10:43:49.411Z,57.89
2018-01-13T10:46:17.848Z,55.20
2018-01-13T10:48:46.214Z,54.80
2018-01-13T10:51:14.587Z,56.90
2018-01-13T10:53:42.984Z,57.75
2018-01-13T10:56:11.473Z,61.58
2018-01-13T10:58:39.847Z,55.77
2018-01-13T11:01:08.222Z,58.96
2018-01-13T11:03:37.419Z,57.93
2018-01-13T11:06:05.986Z,56.36
2018-01-13T11:08:34.342Z,55.76
2018-01-13T11:11:02.706Z,59.30
2018-01-13T11:13:31.087Z,58.02
2018-01-13T11:15:59.487Z,55.76
2018-01-13T11:18:27.909Z,57.13
2018-01-13T11:20:56.273Z,57.04
2018-01-13T11:23:24.725Z,57.95
2018-01-13T11:25:53.060Z,58.96
2018-01-13T11:28:21.428Z,57.90
2018-01-13T11:30:49.816Z,60.96
2018-01-13T11:33:18.183Z,59.55
2018-01-13T11:35:46.597Z,59.79
2018-01-13T11:38:15.000Z,59.72
2018-01-13T11:40:43.393Z,56.99
2018-01-13T11:43:11.772Z,57.46
2018-01-13T11:45:40.139Z,55.55
2018-01-13T11:48:08.548Z,56.10
2018-01-13T11:50:36.923Z,58.74
2018-01-13T11:53:05.302Z,58.49
2018-01-13T11:55:33.671Z,56.36
2018-01-13T11:58:02.072Z,57.07
2018-01-13T12:00:30.469Z,59.39
2018-01-13T12:02:58.848Z,56.14
2018-01-13T12:05:27.247Z,56.80
2018-01-13T12:07:55.607Z,57.85
2018-01-13T12:10:23.965Z,56.59
2018-01-13T12:12:52.429Z,56.09
2018-01-13T12:15:20.807Z,59.22
2018-01-13T12:17:49.196Z,59.25
2018-01-13T12:20:17.608Z,58.07
2018-01-13T12:22:45.992Z,57.90
2018-01-13T12:25:14.380Z,58.22
2018-01-13T12:27:42.756Z,59.43
2018-01-13T12:30:11.171Z,62.38
2018-01-13T12:32:39.587Z,58.36
2018-01-13T12:35:07.947Z,59.16
2018-01-13T12:37:36.318Z,57.95
2018-01-13T12:40:04.680Z,55.93
2018-01-13T12:42:33.073Z,60.22
2018-01-13T12:45:01.481Z,60.22
2018-01-13T12:47:29.846Z,57.72
2018-01-13T12:49:58.225Z,60.81
2018-01-13T12:52:26.613Z,58.30
2018-01-13T12:54:54.986Z,60.00
2018-01-13T12:57:23.550Z,58.97
2018-01-13T12:59:51.900Z,58.77
2018-01-13T13:02:20.274Z,59.07
2018-01-13T13:04:48.654Z,59.08
2018-01-13T13:07:17.043Z,59.70
2018-01-13T13:09:45.441Z,58.76
2018-01-13T13:12:13.791Z,58.85
2018-01-13T13:14:42.205Z,61.38
2018-01-13T13:17:10.560Z,60.65
2018-01-13T13:19:39.021Z,60.20
2018-01-13T13:22:07.379Z,57.36
2018-01-13T13:24:35.803Z,58.97
2018-01-13T13:27:04.222Z,55.98
2018-01-13T13:29:32.584Z,54.09
2018-01-13T13:32:00.984Z,56.79
2018-01-13T13:34:29.361Z,53.16
2018-01-13T13:36:57.719Z,58.45
2018-01-13T13:39:26.152Z,58.74
2018-01-13T13:41:54.526Z,57.53
2018-01-13T13:44:22.928Z,57.99
2018-01-13T13:46:51.331Z,55.39
2018-01-13T13:49:19.747Z,57.91
2018-01-13T13:51:48.163Z,55.15
2018-01-13T13:54:16.576Z,55.22
2018-01-13T13:56:44.928Z,52.17
2018-01-13T13:59:13.323Z,55.03
2018-01-13T14:01:41.737Z,55.65
2018-01-13T14:04:10.362Z,57.14
2018-01-13T14:06:38.739Z,56.32
2018-01-13T14:09:07.173Z,56.29
2018-01-13T14:11:35.542Z,56.84
2018-01-13T14:14:03.925Z,55.75
2018-01-13T14:16:32.334Z,57.88
2018-01-13T14:19:00.820Z,56.62
2018-01-13T14:21:29.183Z,57.81
2018-01-13T14:23:57.595Z,55.24
2018-01-13T14:26:26.020Z,55.99
2018-01-13T14:28:54.412Z,57.31
2018-01-13T14:31:22.810Z,57.14
2018-01-13T14:33:51.178Z,55.64
2018-01-13T14:36:19.547Z,55.73
2018-01-13T14:38:47.936Z,58.79
2018-01-13T14:41:16.465Z,59.17
2018-01-13T14:43:44.830Z,59.46
2018-01-13T14:46:13.206Z,57.74
2018-01-13T14:48:41.591Z,60.19
2018-01-13T14:51:09.967Z,57.64
2018-01-13T14:53:38.356Z,59.86
2018-01-13T14:56:06.728Z,60.67
2018-01-13T14:58:35.102Z,59.79
2018-01-13T15:01:03.487Z,59.84
2018-01-13T15:03:31.868Z,58.84
2018-01-13T15:06:00.322Z,56.52
2018-01-13T15:08:28.677Z,57.80
2018-01-13T15:10:57.062Z,58.39
2018-01-13T15:13:25.557Z,57.39
2018-01-13T15:15:53.947Z,57.52
2018-01-13T15:18:22.395Z,59.17
2018-01-13T15:20:50.775Z,62.82
2018-01-13T15:23:19.170Z,63.50
2018-01-13T15:25:47.630Z,61.55
2018-01-13T15:28:16.038Z,63.44
2018-01-13T15:30:44.443Z,61.12
2018-01-13T15:33:12.922Z,61.50
2018-01-13T15:35:41.347Z,60.64
2018-01-13T15:38:09.733Z,61.44
2018-01-13T15:40:38.133Z,60.64
2018-01-13T15:43:06.616Z,61.58
2018-01-13T15:45:34.975Z,60.82
2018-01-13T15:48:03.351Z,58.56
2018-01-13T15:50:31.715Z,60.10
2018-01-13T15:53:00.080Z,58.40
2018-01-13T15:55:28.468Z,59.69
2018-01-13T15:57:56.883Z,60.25
2018-01-13T16:00:25.287Z,60.98
2018-01-13T16:02:53.661Z,59.45
2018-01-13T16:05:22.077Z,62.00
2018-01-13T16:07:50.435Z,59.74
2018-01-13T16:10:18.802Z,59.23
2018-01-13T16:12:47.180Z,59.73
2018-01-13T16:15:15.563Z,60.07
2018-01-13T16:17:43.960Z,60.78
2018-01-13T16:20:12.318Z,59.13
2018-01-13T16:22:40.699Z,59.52
2018-01-13T16:25:09.095Z,59.25
2018-01-13T16:27:37.537Z,59.47
2018-01-13T16:30:06.037Z,61.12
2018-01-13T16:32:34.457Z,63.13
2018-01-13T16:35:02.827Z,62.74
2018-01-13T16:37:31.186Z,63.70
2018-01-13T16:39:59.553Z,60.19
2018-01-13T16:42:28.062Z,58.71
2018-01-13T16:44:56.430Z,58.37
2018-01-13T16:47:24.828Z,59.65
2018-01-13T16:49:53.222Z,62.47
2018-01-13T16:52:21.603Z,67.48
2018-01-13T16:54:50.032Z,64.45
2018-01-13T16:57:18.394Z,59.96
2018-01-13T16:59:46.778Z,65.55
2018-01-13T17:02:15.147Z,61.83
2018-01-13T17:04:43.514Z,62.76
2018-01-13T17:07:11.914Z,63.21
2018-01-13T17:09:40.288Z,61.34
2018-01-13T17:12:08.654Z,62.94
2018-01-13T17:14:37.026Z,63.22
2018-01-13T17:17:05.407Z,61.23
2018-01-13T17:19:33.810Z,64.43
2018-01-13T17:22:02.187Z,66.80
2018-01-13T17:24:30.566Z,64.03
2018-01-13T17:26:58.931Z,62.89
2018-01-13T17:29:27.290Z,63.04
2018-01-13T17:31:55.793Z,66.67
2018-01-13T17:34:24.156Z,66.12
2018-01-13T17:36:52.519Z,63.16
2018-01-13T17:39:20.879Z,66.36
2018-01-13T17:41:49.295Z,66.85
2018-01-13T17:44:17.680Z,67.37
2018-01-13T17:46:46.078Z,65.91
2018-01-13T17:49:14.448Z,69.73
2018-01-13T17:51:42.799Z,69.16
2018-01-13T17:54:11.213Z,67.32
2018-01-13T17:56:39.602Z,69.19
2018-01-13T17:59:08.017Z,67.83
2018-01-13T18:01:36.392Z,67.47
2018-01-13T18:04:04.788Z,70.68
2018-01-13T18:06:33.199Z,68.59
2018-01-13T18:09:01.562Z,67.46
2018-01-13T18:11:29.956Z,68.44
2018-01-13T18:13:58.331Z,65.76
2018-01-13T18:16:26.720Z,66.02
2018-01-13T18:18:55.119Z,65.85
2018-01-13T18:21:23.491Z,67.64
2018-01-13T18:23:51.858Z,67.22
2018-01-13T18:26:20.344Z,68.48
2018-01-13T18:28:48.705Z,66.38
2018-01-13T18:31:17.199Z,69.65
2018-01-13T18:33:45.554Z,69.98
2018-01-13T18:36:13.904Z,68.36
2018-01-13T18:38:42.290Z,66.79
2018-01-13T18:41:10.658Z,69.45
2018-01-13T18:43:39.047Z,69.90
2018-01-13T18:46:07.460Z,68.83
2018-01-13T18:48:35.816Z,71.09
2018-01-13T18:51:04.179Z,68.49
2018-01-13T18:53:32.534Z,69.37
2018-01-13T18:56:00.934Z,70.08
2018-01-13T18:58:29.311Z,70.54
2018-01-13T19:00:57.706Z,69.84
2018-01-13T19:03:26.084Z,70.10
2018-01-13T19:05:54.459Z,67.66
2018-01-13T19:08:22.855Z,67.91
2018-01-13T19:10:51.366Z,68.91
2018-01-13T19:13:19.752Z,69.24
2018-01-13T19:15:48.148Z,69.51
2018-01-13T19:18:16.508Z,67.15
2018-01-13T19:20:44.871Z,70.70
2018-01-13T19:23:13.263Z,66.58
2018-01-13T19:25:41.829Z,69.30
2018-01-13T19:28:10.188Z,73.78
2018-01-13T19:30:38.604Z,71.54
2018-01-13T19:33:07.034Z,72.29
2018-01-13T19:35:35.422Z,68.33
2018-01-13T19:38:03.791Z,70.32
2018-01-13T19:40:32.269Z,72.91
2018-01-13T19:43:00.694Z,71.10
2018-01-13T19:45:29.145Z,67.64
2018-01-13T19:47:57.582Z,69.38
2018-01-13T19:50:26.050Z,67.39
2018-01-13T19:52:54.403Z,66.02
2018-01-13T19:55:22.794Z,68.72
2018-01-13T19:57:51.186Z,68.71
2018-01-13T20:00:19.528Z,68.74
2018-01-13T20:02:47.938Z,66.80
2018-01-13T20:05:16.335Z,68.36
2018-01-13T20:07:44.737Z,69.88
2018-01-13T20:10:13.144Z,69.84
2018-01-13T20:12:41.529Z,69.51
2018-01-13T20:15:09.887Z,73.00
2018-01-13T20:17:38.303Z,71.00
2018-01-13T20:20:06.785Z,68.29
2018-01-13T20:22:40.752Z,66.54
2018-01-13T20:25:09.143Z,69.87
2018-01-13T20:27:37.561Z,67.58
2018-01-13T20:30:06.090Z,68.11
2018-01-13T20:32:34.500Z,69.69
2018-01-13T20:35:02.905Z,70.39
2018-01-13T20:37:31.267Z,69.90
2018-01-13T20:39:59.654Z,69.79
2018-01-13T20:42:28.023Z,70.99
2018-01-13T20:44:56.400Z,69.45
2018-01-13T20:47:24.811Z,69.42
2018-01-13T20:49:53.282Z,68.83
2018-01-13T20:52:21.651Z,68.59
2018-01-13T20:54:50.028Z,67.04
2018-01-13T20:57:18.398Z,71.17
2018-01-13T20:59:46.854Z,69.11
2018-01-13T21:02:15.215Z,68.12
2018-01-13T21:04:43.596Z,68.24
2018-01-13T21:07:11.961Z,72.16
2018-01-13T21:09:40.331Z,67.98
2018-01-13T21:12:08.809Z,68.97
2018-01-13T21:14:37.187Z,69.78
2018-01-13T21:17:05.560Z,72.89
2018-01-13T21:19:33.934Z,70.75
2018-01-13T21:22:02.303Z,69.75
2018-01-13T21:24:30.696Z,73.21
2018-01-13T21:26:59.095Z,69.08
2018-01-13T21:29:27.473Z,72.96
2018-01-13T21:31:55.831Z,71.89
2018-01-13T21:34:24.205Z,69.38
2018-01-13T21:36:52.614Z,71.45
2018-01-13T21:39:21.002Z,72.38
2018-01-13T21:41:49.366Z,72.99
2018-01-13T21:44:17.729Z,74.64
2018-01-13T21:46:46.090Z,74.01
2018-01-13T21:49:14.442Z,73.50
2018-01-13T21:51:42.830Z,71.02
2018-01-13T21:54:11.189Z,72.19
2018-01-13T21:56:39.591Z,71.12
2018-01-13T21:59:07.959Z,70.38
2018-01-13T22:01:36.344Z,74.38
2018-01-13T22:04:04.876Z,71.48
2018-01-13T22:06:33.329Z,71.16
2018-01-13T22:09:01.691Z,70.56
2018-01-13T22:11:30.205Z,70.59
2018-01-13T22:13:58.573Z,71.45
2018-01-13T22:16:26.962Z,74.04
2018-01-13T22:18:55.326Z,75.41
2018-01-13T22:21:23.752Z,74.47
2018-01-13T22:23:52.127Z,75.93
2018-01-13T22:26:20.480Z,72.92
2018-01-13T22:28:48.925Z,73.31
2018-01-13T22:31:17.345Z,70.81
2018-01-13T22:33:45.740Z,71.55
2018-01-13T22:36:14.115Z,73.22
2018-01-13T22:38:42.496Z,69.86
2018-01-13T22:41:11.834Z,69.71
2018-01-13T22:43:40.211Z,73.62
2018-01-13T22:46:08.567Z,73.92
2018-01-13T22:48:36.946Z,74.09
2018-01-13T22:51:05.349Z,76.16
2018-01-13T22:53:33.718Z,75.21
2018-01-13T22:56:02.079Z,75.91
2018-01-13T22:58:30.439Z,74.94
2018-01-13T23:00:58.811Z,70.29
2018-01-13T23:03:27.173Z,72.67
2018-01-13T23:05:55.605Z,74.99
2018-01-13T23:08:23.975Z,73.86
2018-01-13T23:10:52.349Z,74.50
2018-01-13T23:13:20.807Z,76.32
2018-01-13T23:15:49.184Z,77.69
2018-01-13T23:18:17.582Z,73.70
2018-01-13T23:20:45.926Z,72.80
2018-01-13T23:23:14.292Z,74.43
2018-01-13T23:25:42.655Z,72.49
2018-01-13T23:28:11.077Z,73.50
2018-01-13T23:30:39.442Z,71.47
2018-01-13T23:33:07.815Z,72.93
2018-01-13T23:35:36.158Z,75.86
2018-01-13T23:38:04.548Z,74.95
2018-01-13T23:40:33.004Z,75.79
2018-01-13T23:43:01.375Z,76.59
2018-01-13T23:45:29.732Z,73.96
2018-01-13T23:47:58.083Z,74.92
2018-01-13T23:50:26.439Z,72.28
2018-01-13T23:52:54.821Z,71.52
2018-01-13T23:55:23.171Z,72.48
2018-01-13T23:57:51.567Z,72.93
